Time,TemperatureF,DewpointF,PressureIn,WindDirection,WindDirectionDegrees,WindSpeedMPH,WindSpeedGustMPH,Humidity,HourlyPrecipIn,Conditions,Clouds,dailyrainin,SoftwareType,DateUTC
2013-01-01 00:01:00,34.7,25.6,30.32,NNE,22,0.0,0.0,69,0.00,,,0.00,WUHU216WMR968SP,2013-01-01 08:01:00,
2013-01-01 00:06:00,34.7,25.6,30.32,NNE,22,0.0,0.0,69,0.00,,,0.00,WUHU216WMR968SP,2013-01-01 08:06:00,
2013-01-01 00:11:00,34.9,25.8,30.32,East,100,0.0,3.6,69,0.00,,,0.00,WUHU216WMR968SP,2013-01-01 08:11:00,
2013-01-01 00:15:00,34.9,25.8,30.32,ESE,109,0.0,4.0,69,0.00,,,0.00,WUHU216WMR968SP,2013-01-01 08:15:00,
2013-01-01 00:20:00,34.9,26.2,30.32,ESE,108,0.0,4.0,70,0.00,,,0.00,WUHU216WMR968SP,2013-01-01 08:20:00,
2013-01-01 00:25:00,34.9,26.5,30.32,East,84,3.6,5.4,71,0.00,,,0.00,WUHU216WMR968SP,2013-01-01 08:25:00,
2013-01-01 00:30:00,34.7,26.3,30.32,East,84,0.0,5.4,71,0.00,,,0.00,WUHU216WMR968SP,2013-01-01 08:30:00,
2013-01-01 00:35:00,34.7,26.3,30.32,ESE,112,0.0,5.4,71,0.00,,,0.00,WUHU216WMR968SP,2013-01-01 08:35:00,
2013-01-01 00:40:00,34.5,26.1,30.32,ESE,109,2.2,5.4,71,0.00,,,0.00,WUHU216WMR968SP,2013-01-01 08:40:00,
2013-01-01 00:45:00,34.5,26.1,30.32,ESE,109,0.0,4.0,71,0.00,,,0.00,WUHU216WMR968SP,2013-01-01 08:45:00,
2013-01-01 00:50:00,34.5,26.1,30.32,ENE,64,0.0,3.6,71,0.00,,,0.00,WUHU216WMR968SP,2013-01-01 08:50:00,
2013-01-01 00:55:00,34.5,26.1,30.32,NE,38,0.0,3.6,71,0.00,,,0.00,WUHU216WMR968SP,2013-01-01 08:55:00,
2013-01-01 01:00:00,34.3,25.9,30.32,NE,38,0.0,3.6,71,0.00,,,0.00,WUHU216WMR968SP,2013-01-01 09:00:00,
2013-01-01 01:05:00,34.2,25.5,30.32,NNE,33,2.2,3.6,70,0.00,,,0.00,WUHU216WMR968SP,2013-01-01 09:05:00,
2013-01-01 01:10:00,34.0,25.3,30.32,ESE,112,0.0,4.0,70,0.00,,,0.00,WUHU216WMR968SP,2013-01-01 09:10:00,
2013-01-01 01:15:00,34.0,25.3,30.32,ESE,109,2.7,4.0,70,0.00,,,0.00,WUHU216WMR968SP,2013-01-01 09:15:00,
2013-01-01 01:20:00,33.8,25.1,30.32,East,100,2.7,4.5,70,0.00,,,0.00,WUHU216WMR968SP,2013-01-01 09:20:00,
2013-01-01 01:25:00,33.6,24.9,30.32,East,100,0.0,4.5,70,0.00,,,0.00,WUHU216WMR968SP,2013-01-01 09:25:00,
2013-01-01 01:30:00,33.4,24.7,30.32,East,100,0.0,2.7,70,0.00,,,0.00,WUHU216WMR968SP,2013-01-01 09:30:00,
2013-01-01 02:12:00,32.2,23.9,30.30,East,84,0.0,0.0,71,0.00,,,0.00,WUHU216WMR968SP,2013-01-01 10:12:00,
2013-01-01 02:17:00,32.0,23.7,30.32,East,84,0.0,0.0,71,0.00,,,0.00,WUHU216WMR968SP,2013-01-01 10:17:00,
2013-01-01 02:22:00,31.6,23.0,30.32,East,84,0.0,0.0,70,0.00,,,0.00,WUHU216WMR968SP,2013-01-01 10:22:00,
2013-01-01 02:27:00,31.3,22.7,30.32,East,84,0.0,0.0,70,0.00,,,0.00,WUHU216WMR968SP,2013-01-01 10:27:00,
2013-01-01 02:32:00,31.1,22.5,30.32,East,84,0.0,0.0,70,0.00,,,0.00,WUHU216WMR968SP,2013-01-01 10:32:00,
2013-01-01 02:37:00,31.1,22.9,30.32,East,84,0.0,0.0,71,0.00,,,0.00,WUHU216WMR968SP,2013-01-01 10:37:00,
2013-01-01 02:42:00,31.1,22.9,30.32,East,84,0.0,0.0,71,0.00,,,0.00,WUHU216WMR968SP,2013-01-01 10:42:00,
2013-01-01 02:47:00,31.3,23.4,30.32,East,84,0.0,0.0,72,0.00,,,0.00,WUHU216WMR968SP,2013-01-01 10:47:00,
2013-01-01 02:52:00,31.1,23.2,30.32,WNW,285,0.0,4.0,72,0.00,,,0.00,WUHU216WMR968SP,2013-01-01 10:52:00,
2013-01-01 02:57:00,31.1,23.2,30.32,WSW,255,0.0,4.0,72,0.00,,,0.00,WUHU216WMR968SP,2013-01-01 10:57:00,
2013-01-01 03:02:00,31.1,23.2,30.35,WSW,255,0.0,2.7,72,0.00,,,0.00,WUHU216WMR968SP,2013-01-01 11:02:00,
2013-01-01 03:07:00,31.3,23.7,30.35,WSW,255,0.0,2.2,73,0.00,,,0.00,WUHU216WMR968SP,2013-01-01 11:07:00,
2013-01-01 03:13:00,31.5,23.9,30.35,WSW,255,0.0,0.0,73,0.00,,,0.00,WUHU216WMR968SP,2013-01-01 11:13:00,
2013-01-01 03:18:00,31.6,24.0,30.32,WSW,255,0.0,0.0,73,0.00,,,0.00,WUHU216WMR968SP,2013-01-01 11:18:00,
2013-01-01 03:23:00,31.8,24.2,30.32,WSW,255,0.0,0.0,73,0.00,,,0.00,WUHU216WMR968SP,2013-01-01 11:23:00,
2013-01-01 03:28:00,31.8,24.2,30.32,WSW,255,0.0,0.0,73,0.00,,,0.00,WUHU216WMR968SP,2013-01-01 11:28:00,
2013-01-01 03:33:00,32.0,24.4,30.35,WSW,255,0.0,0.0,73,0.00,,,0.00,WUHU216WMR968SP,2013-01-01 11:33:00,
2013-01-01 03:38:00,32.2,24.9,30.35,WSW,255,0.0,0.0,74,0.00,,,0.00,WUHU216WMR968SP,2013-01-01 11:38:00,
2013-01-01 03:50:00,32.5,25.2,30.32,SSE,149,0.0,3.6,74,0.00,,,0.00,WUHU216WMR968SP,2013-01-01 11:50:00,
2013-01-01 03:55:00,32.5,25.2,30.32,SSE,149,0.0,3.6,74,0.00,,,0.00,WUHU216WMR968SP,2013-01-01 11:55:00,
2013-01-01 04:00:00,32.7,25.4,30.32,SSE,149,0.0,0.0,74,0.00,,,0.00,WUHU216WMR968SP,2013-01-01 12:00:00,
2013-01-01 04:05:00,32.7,25.7,30.32,SSE,149,0.0,0.0,75,0.00,,,0.00,WUHU216WMR968SP,2013-01-01 12:05:00,
2013-01-01 04:10:00,32.7,25.7,30.32,SSE,149,0.0,0.0,75,0.00,,,0.00,WUHU216WMR968SP,2013-01-01 12:10:00,
2013-01-01 04:15:00,32.7,25.7,30.32,SSE,149,0.0,0.0,75,0.00,,,0.00,WUHU216WMR968SP,2013-01-01 12:15:00,
2013-01-01 04:20:00,32.7,25.7,30.32,SSE,149,0.0,0.0,75,0.00,,,0.00,WUHU216WMR968SP,2013-01-01 12:20:00,
2013-01-01 04:25:00,32.7,25.7,30.32,SSE,149,0.0,0.0,75,0.00,,,0.00,WUHU216WMR968SP,2013-01-01 12:25:00,
2013-01-01 04:30:00,32.7,25.7,30.32,SSE,149,0.0,0.0,75,0.00,,,0.00,WUHU216WMR968SP,2013-01-01 12:30:00,
2013-01-01 04:35:00,32.7,25.7,30.32,SSE,149,0.0,0.0,75,0.00,,,0.00,WUHU216WMR968SP,2013-01-01 12:35:00,
2013-01-01 04:40:00,32.7,25.7,30.32,SSE,149,0.0,0.0,75,0.00,,,0.00,WUHU216WMR968SP,2013-01-01 12:40:00,
2013-01-01 04:45:00,32.7,25.7,30.32,SSE,149,0.0,0.0,75,0.00,,,0.00,WUHU216WMR968SP,2013-01-01 12:45:00,
2013-01-01 04:50:00,32.7,25.7,30.32,SSE,149,0.0,0.0,75,0.00,,,0.00,WUHU216WMR968SP,2013-01-01 12:50:00,
2013-01-01 04:55:00,32.7,25.7,30.32,SE,132,2.7,3.6,75,0.00,,,0.00,WUHU216WMR968SP,2013-01-01 12:55:00,
2013-01-01 05:00:00,32.5,25.5,30.32,ESE,115,2.7,4.0,75,0.00,,,0.00,WUHU216WMR968SP,2013-01-01 13:00:00,
2013-01-01 05:05:00,32.5,25.8,30.32,ESE,115,0.0,4.0,76,0.00,,,0.00,WUHU216WMR968SP,2013-01-01 13:05:00,
2013-01-01 05:10:00,32.5,25.8,30.32,East,101,3.1,5.4,76,0.00,,,0.00,WUHU216WMR968SP,2013-01-01 13:10:00,
2013-01-01 05:15:00,32.4,25.7,30.32,East,99,3.1,5.4,76,0.00,,,0.00,WUHU216WMR968SP,2013-01-01 13:15:00,
2013-01-01 05:20:00,32.4,25.7,30.32,East,93,2.2,4.0,76,0.00,,,0.00,WUHU216WMR968SP,2013-01-01 13:20:00,
2013-01-01 05:25:00,32.2,25.5,30.32,ENE,72,3.1,3.6,76,0.00,,,0.00,WUHU216WMR968SP,2013-01-01 13:25:00,
2013-01-01 05:30:00,32.0,25.3,30.32,East,92,0.0,3.6,76,0.00,,,0.00,WUHU216WMR968SP,2013-01-01 13:30:00,
2013-01-01 05:35:00,31.8,25.1,30.32,East,92,0.0,3.1,76,0.00,,,0.00,WUHU216WMR968SP,2013-01-01 13:35:00,
2013-01-01 05:40:00,31.6,24.9,30.32,ESE,109,2.2,3.1,76,0.00,,,0.00,WUHU216WMR968SP,2013-01-01 13:40:00,
2013-01-01 05:45:00,31.5,24.8,30.32,ESE,110,0.0,3.1,76,0.00,,,0.00,WUHU216WMR968SP,2013-01-01 13:45:00,
2013-01-01 05:50:00,31.3,24.6,30.32,ESE,117,0.0,3.1,76,0.00,,,0.00,WUHU216WMR968SP,2013-01-01 13:50:00,
2013-01-01 05:55:00,31.1,24.5,30.32,ESE,119,0.0,0.0,76,0.00,,,0.00,WUHU216WMR968SP,2013-01-01 13:55:00,
2013-01-01 06:00:00,30.9,24.3,30.32,ESE,119,2.2,3.1,76,0.00,,,0.00,WUHU216WMR968SP,2013-01-01 14:00:00,
2013-01-01 06:05:00,30.7,24.1,30.32,ESE,119,0.0,3.1,76,0.00,,,0.00,WUHU216WMR968SP,2013-01-01 14:05:00,
2013-01-01 06:10:00,30.6,24.0,30.32,ESE,119,0.0,3.1,76,0.00,,,0.00,WUHU216WMR968SP,2013-01-01 14:10:00,
2013-01-01 06:15:00,30.6,24.0,30.30,ESE,119,0.0,0.0,76,0.00,,,0.00,WUHU216WMR968SP,2013-01-01 14:15:00,
2013-01-01 06:20:00,30.2,23.6,30.30,ESE,119,0.0,0.0,76,0.00,,,0.00,WUHU216WMR968SP,2013-01-01 14:20:00,
2013-01-01 06:25:00,30.2,23.6,30.30,ESE,119,0.0,0.0,76,0.00,,,0.00,WUHU216WMR968SP,2013-01-01 14:25:00,
2013-01-01 06:30:00,30.2,23.9,30.30,ESE,119,0.0,0.0,77,0.00,,,0.00,WUHU216WMR968SP,2013-01-01 14:30:00,
2013-01-01 06:35:00,30.4,23.8,30.30,ESE,119,0.0,0.0,76,0.00,,,0.00,WUHU216WMR968SP,2013-01-01 14:35:00,
2013-01-01 06:40:00,30.4,23.8,30.30,ESE,119,0.0,0.0,76,0.00,,,0.00,WUHU216WMR968SP,2013-01-01 14:40:00,
2013-01-01 06:45:00,30.4,24.1,30.30,ESE,119,0.0,0.0,77,0.00,,,0.00,WUHU216WMR968SP,2013-01-01 14:45:00,
2013-01-01 06:50:00,30.4,24.1,30.30,ESE,119,0.0,0.0,77,0.00,,,0.00,WUHU216WMR968SP,2013-01-01 14:50:00,
2013-01-01 06:55:00,30.2,23.9,30.30,NNW,338,0.0,0.0,77,0.00,,,0.00,WUHU216WMR968SP,2013-01-01 14:55:00,
2013-01-01 07:00:00,30.2,23.9,30.32,NNW,335,0.0,4.0,77,0.00,,,0.00,WUHU216WMR968SP,2013-01-01 15:00:00,
2013-01-01 07:05:00,30.2,23.9,30.32,NNW,335,0.0,4.0,77,0.00,,,0.00,WUHU216WMR968SP,2013-01-01 15:05:00,
2013-01-01 07:10:00,30.2,23.9,30.32,NNW,335,0.0,0.0,77,0.00,,,0.00,WUHU216WMR968SP,2013-01-01 15:10:00,
2013-01-01 07:15:00,30.2,23.9,30.32,NNW,335,0.0,2.2,77,0.00,,,0.00,WUHU216WMR968SP,2013-01-01 15:15:00,
2013-01-01 07:20:00,30.2,23.9,30.32,WNW,291,0.0,3.1,77,0.00,,,0.00,WUHU216WMR968SP,2013-01-01 15:20:00,
2013-01-01 07:25:00,30.2,23.9,30.32,WNW,303,0.0,3.1,77,0.00,,,0.00,WUHU216WMR968SP,2013-01-01 15:25:00,
2013-01-01 07:30:00,30.2,23.9,30.32,WNW,302,0.0,0.0,77,0.00,,,0.00,WUHU216WMR968SP,2013-01-01 15:30:00,
2013-01-01 07:35:00,30.4,24.1,30.32,WNW,285,0.0,0.0,77,0.00,,,0.00,WUHU216WMR968SP,2013-01-01 15:35:00,
2013-01-01 07:40:00,30.4,24.1,30.32,WNW,284,0.0,0.0,77,0.00,,,0.00,WUHU216WMR968SP,2013-01-01 15:40:00,
2013-01-01 07:45:00,30.4,24.1,30.32,WNW,283,0.0,0.0,77,0.00,,,0.00,WUHU216WMR968SP,2013-01-01 15:45:00,
2013-01-01 07:50:00,30.7,24.4,30.32,WNW,284,0.0,0.0,77,0.00,,,0.00,WUHU216WMR968SP,2013-01-01 15:50:00,
2013-01-01 07:55:00,30.9,24.6,30.32,WNW,285,0.0,0.0,77,0.00,,,0.00,WUHU216WMR968SP,2013-01-01 15:55:00,
2013-01-01 08:00:00,31.1,24.8,30.32,WNW,285,0.0,0.0,77,0.00,,,0.00,WUHU216WMR968SP,2013-01-01 16:00:00,
2013-01-01 08:05:00,31.1,24.8,30.32,WNW,284,0.0,0.0,77,0.00,,,0.00,WUHU216WMR968SP,2013-01-01 16:05:00,
2013-01-01 08:10:00,31.5,25.1,30.32,WNW,284,0.0,0.0,77,0.00,,,0.00,WUHU216WMR968SP,2013-01-01 16:10:00,
2013-01-01 08:15:00,31.6,25.2,30.32,WNW,284,0.0,0.0,77,0.00,,,0.00,WUHU216WMR968SP,2013-01-01 16:15:00,
2013-01-01 08:20:00,31.6,25.2,30.32,WNW,285,0.0,0.0,77,0.00,,,0.00,WUHU216WMR968SP,2013-01-01 16:20:00,
2013-01-01 08:25:00,31.8,25.4,30.32,WNW,284,0.0,0.0,77,0.00,,,0.00,WUHU216WMR968SP,2013-01-01 16:25:00,
2013-01-01 08:30:00,31.8,25.4,30.32,WNW,285,0.0,0.0,77,0.00,,,0.00,WUHU216WMR968SP,2013-01-01 16:30:00,
2013-01-01 08:35:00,31.8,25.4,30.32,WNW,285,0.0,0.0,77,0.00,,,0.00,WUHU216WMR968SP,2013-01-01 16:35:00,
2013-01-01 08:40:00,31.8,25.4,30.32,WNW,284,0.0,0.0,77,0.00,,,0.00,WUHU216WMR968SP,2013-01-01 16:40:00,
2013-01-01 08:45:00,32.0,25.9,30.35,WNW,285,0.0,0.0,78,0.00,,,0.00,WUHU216WMR968SP,2013-01-01 16:45:00,
2013-01-01 08:50:00,32.0,25.9,30.35,WNW,285,0.0,0.0,78,0.00,,,0.00,WUHU216WMR968SP,2013-01-01 16:50:00,
2013-01-01 08:55:00,32.0,25.9,30.35,WNW,284,0.0,0.0,78,0.00,,,0.00,WUHU216WMR968SP,2013-01-01 16:55:00,
2013-01-01 09:00:00,32.0,25.9,30.35,WNW,285,0.0,0.0,78,0.00,,,0.00,WUHU216WMR968SP,2013-01-01 17:00:00,
2013-01-01 09:05:00,32.0,25.9,30.35,WNW,285,0.0,0.0,78,0.00,,,0.00,WUHU216WMR968SP,2013-01-01 17:05:00,
2013-01-01 09:10:00,31.8,25.7,30.35,NNW,334,0.0,4.0,78,0.00,,,0.00,WUHU216WMR968SP,2013-01-01 17:10:00,
2013-01-01 09:15:00,31.8,25.7,30.35,NNW,334,0.0,4.0,78,0.00,,,0.00,WUHU216WMR968SP,2013-01-01 17:15:00,
2013-01-01 09:20:00,32.0,25.9,30.35,NNW,334,0.0,0.0,78,0.00,,,0.00,WUHU216WMR968SP,2013-01-01 17:20:00,
2013-01-01 09:25:00,32.0,25.9,30.35,West,267,3.1,4.9,78,0.00,,,0.00,WUHU216WMR968SP,2013-01-01 17:25:00,
2013-01-01 09:30:00,32.0,25.9,30.35,WNW,301,0.0,4.9,78,0.00,,,0.00,WUHU216WMR968SP,2013-01-01 17:30:00,
2013-01-01 09:35:00,32.0,25.9,30.35,WNW,301,0.0,4.0,78,0.00,,,0.00,WUHU216WMR968SP,2013-01-01 17:35:00,
2013-01-01 09:40:00,32.2,26.1,30.35,WNW,284,0.0,4.9,78,0.00,,,0.00,WUHU216WMR968SP,2013-01-01 17:40:00,
2013-01-01 09:45:00,32.2,26.1,30.35,WNW,293,0.0,4.9,78,0.00,,,0.00,WUHU216WMR968SP,2013-01-01 17:45:00,
2013-01-01 09:50:00,32.4,26.3,30.35,WNW,294,0.0,3.1,78,0.00,,,0.00,WUHU216WMR968SP,2013-01-01 17:50:00,
2013-01-01 09:55:00,32.5,26.4,30.35,WNW,295,0.0,3.1,78,0.00,,,0.00,WUHU216WMR968SP,2013-01-01 17:55:00,
2013-01-01 10:00:00,32.7,26.6,30.35,WNW,295,0.0,0.0,78,0.00,,,0.00,WUHU216WMR968SP,2013-01-01 18:00:00,
2013-01-01 10:05:00,32.7,26.6,30.35,South,183,0.0,3.6,78,0.00,,,0.00,WUHU216WMR968SP,2013-01-01 18:05:00,
2013-01-01 10:10:00,32.7,26.3,30.35,South,184,0.0,3.6,77,0.00,,,0.00,WUHU216WMR968SP,2013-01-01 18:10:00,
2013-01-01 10:15:00,32.7,26.0,30.35,South,184,0.0,0.0,76,0.00,,,0.00,WUHU216WMR968SP,2013-01-01 18:15:00,
2013-01-01 10:20:00,32.9,25.9,30.35,SSE,161,0.0,2.7,75,0.00,,,0.00,WUHU216WMR968SP,2013-01-01 18:20:00,
2013-01-01 10:25:00,33.1,25.4,30.35,SSE,161,0.0,2.7,73,0.00,,,0.00,WUHU216WMR968SP,2013-01-01 18:25:00,
2013-01-01 10:30:00,33.3,25.6,30.35,South,178,0.0,2.2,73,0.00,,,0.00,WUHU216WMR968SP,2013-01-01 18:30:00,
2013-01-01 10:35:00,33.4,25.7,30.35,South,178,0.0,0.0,73,0.00,,,0.00,WUHU216WMR968SP,2013-01-01 18:35:00,
2013-01-01 10:40:00,33.6,25.9,30.35,South,179,0.0,0.0,73,0.00,,,0.00,WUHU216WMR968SP,2013-01-01 18:40:00,
2013-01-01 10:45:00,33.8,25.1,30.35,WNW,299,0.0,4.0,70,0.00,,,0.00,WUHU216WMR968SP,2013-01-01 18:45:00,
2013-01-01 10:50:00,33.6,22.0,30.35,WSW,237,2.2,4.0,62,0.00,,,0.00,WUHU216WMR968SP,2013-01-01 18:50:00,
2013-01-01 10:55:00,33.6,20.8,30.35,WNW,293,2.2,4.9,59,0.00,,,0.00,WUHU216WMR968SP,2013-01-01 18:55:00,
2013-01-01 11:00:00,33.4,19.8,30.35,WNW,291,2.2,4.9,57,0.00,,,0.00,WUHU216WMR968SP,2013-01-01 19:00:00,
2013-01-01 11:05:00,33.6,20.0,30.35,West,259,2.2,4.9,57,0.00,,,0.00,WUHU216WMR968SP,2013-01-01 19:05:00,
2013-01-01 11:10:00,33.3,18.9,30.35,WNW,286,4.0,5.8,55,0.00,,,0.00,WUHU216WMR968SP,2013-01-01 19:10:00,
2013-01-01 11:15:00,33.1,18.2,30.35,SSW,205,2.2,5.8,54,0.00,,,0.00,WUHU216WMR968SP,2013-01-01 19:15:00,
2013-01-01 11:20:00,33.3,19.7,30.35,SW,218,2.7,5.4,57,0.00,,,0.00,WUHU216WMR968SP,2013-01-01 19:20:00,
2013-01-01 11:25:00,33.3,19.7,30.35,SW,217,2.2,4.9,57,0.00,,,0.00,WUHU216WMR968SP,2013-01-01 19:25:00,
2013-01-01 11:30:00,33.3,19.7,30.35,SW,217,2.7,3.6,57,0.00,,,0.00,WUHU216WMR968SP,2013-01-01 19:30:00,
2013-01-01 11:35:00,33.3,20.1,30.35,West,263,3.1,4.9,58,0.00,,,0.00,WUHU216WMR968SP,2013-01-01 19:35:00,
2013-01-01 11:40:00,33.3,20.1,30.35,SW,214,3.1,4.9,58,0.00,,,0.00,WUHU216WMR968SP,2013-01-01 19:40:00,
2013-01-01 11:45:00,33.3,20.6,30.35,SSW,213,2.7,4.0,59,0.00,,,0.00,WUHU216WMR968SP,2013-01-01 19:45:00,
2013-01-01 11:50:00,33.1,20.4,30.35,SSW,213,2.7,4.9,59,0.00,,,0.00,WUHU216WMR968SP,2013-01-01 19:50:00,
2013-01-01 11:55:00,33.3,20.6,30.35,SW,214,2.2,4.9,59,0.00,,,0.00,WUHU216WMR968SP,2013-01-01 19:55:00,
2013-01-01 12:01:00,33.4,21.4,30.32,SSW,213,0.0,3.6,61,0.00,,,0.00,WUHU216WMR968SP,2013-01-01 20:01:00,
2013-01-01 12:06:00,33.6,21.6,30.32,SSW,213,0.0,2.7,61,0.00,,,0.00,WUHU216WMR968SP,2013-01-01 20:06:00,
2013-01-01 12:11:00,33.8,21.4,30.32,SSW,212,0.0,2.7,60,0.00,,,0.00,WUHU216WMR968SP,2013-01-01 20:11:00,
2013-01-01 12:16:00,33.6,19.6,30.32,South,170,3.1,3.6,56,0.00,,,0.00,WUHU216WMR968SP,2013-01-01 20:16:00,
2013-01-01 12:21:00,33.6,19.1,30.32,South,171,2.2,4.0,55,0.00,,,0.00,WUHU216WMR968SP,2013-01-01 20:21:00,
2013-01-01 12:26:00,33.8,18.9,30.32,SSW,197,2.2,4.0,54,0.00,,,0.00,WUHU216WMR968SP,2013-01-01 20:26:00,
2013-01-01 12:31:00,34.2,19.7,30.32,WNW,292,0.0,3.6,55,0.00,,,0.00,WUHU216WMR968SP,2013-01-01 20:31:00,
2013-01-01 12:36:00,34.2,19.3,30.32,WNW,297,0.0,3.6,54,0.00,,,0.00,WUHU216WMR968SP,2013-01-01 20:36:00,
2013-01-01 12:41:00,34.3,18.9,30.32,SW,229,0.0,3.1,53,0.00,,,0.00,WUHU216WMR968SP,2013-01-01 20:41:00,
2013-01-01 12:47:00,34.2,17.9,30.30,SW,220,2.7,3.6,51,0.00,,,0.00,WUHU216WMR968SP,2013-01-01 20:47:00,
2013-01-01 12:52:00,34.3,18.5,30.30,WSW,252,2.2,4.0,52,0.00,,,0.00,WUHU216WMR968SP,2013-01-01 20:52:00,
2013-01-01 12:57:00,34.3,18.5,30.30,WSW,254,2.2,4.0,52,0.00,,,0.00,WUHU216WMR968SP,2013-01-01 20:57:00,
2013-01-01 13:02:00,34.5,18.6,30.30,SW,221,2.7,4.0,52,0.00,,,0.00,WUHU216WMR968SP,2013-01-01 21:02:00,
2013-01-01 13:08:00,34.5,18.2,30.30,WSW,242,3.1,4.0,51,0.00,,,0.00,WUHU216WMR968SP,2013-01-01 21:08:00,
2013-01-01 13:13:00,34.3,17.5,30.30,SSW,212,0.0,4.0,50,0.00,,,0.00,WUHU216WMR968SP,2013-01-01 21:13:00,
2013-01-01 13:18:00,34.3,17.5,30.30,SW,236,2.7,4.0,50,0.00,,,0.00,WUHU216WMR968SP,2013-01-01 21:18:00,
2013-01-01 13:23:00,34.5,17.7,30.30,SW,222,0.0,4.0,50,0.00,,,0.00,WUHU216WMR968SP,2013-01-01 21:23:00,
2013-01-01 13:28:00,34.3,17.5,30.30,SW,217,2.2,4.5,50,0.00,,,0.00,WUHU216WMR968SP,2013-01-01 21:28:00,
2013-01-01 13:33:00,34.7,18.4,30.30,SW,226,2.7,4.5,51,0.00,,,0.00,WUHU216WMR968SP,2013-01-01 21:33:00,
2013-01-01 13:38:00,34.9,18.5,30.30,SW,220,2.7,4.9,51,0.00,,,0.00,WUHU216WMR968SP,2013-01-01 21:38:00,
2013-01-01 13:43:00,35.4,19.0,30.30,SW,216,3.1,4.9,51,0.00,,,0.00,WUHU216WMR968SP,2013-01-01 21:43:00,
2013-01-01 13:48:00,35.4,18.1,30.30,WSW,244,2.2,4.9,49,0.00,,,0.00,WUHU216WMR968SP,2013-01-01 21:48:00,
2013-01-01 13:53:00,35.8,17.9,30.30,WSW,238,3.6,4.9,48,0.00,,,0.00,WUHU216WMR968SP,2013-01-01 21:53:00,
2013-01-01 13:58:00,35.6,16.7,30.30,SW,229,3.1,4.9,46,0.00,,,0.00,WUHU216WMR968SP,2013-01-01 21:58:00,
2013-01-01 14:03:00,35.6,17.2,30.27,SSW,200,3.1,4.9,47,0.00,,,0.00,WUHU216WMR968SP,2013-01-01 22:03:00,
2013-01-01 14:08:00,35.4,17.6,30.27,SW,223,2.7,5.4,48,0.00,,,0.00,WUHU216WMR968SP,2013-01-01 22:08:00,
2013-01-01 14:13:00,35.2,17.4,30.27,NW,306,4.0,5.8,48,0.00,,,0.00,WUHU216WMR968SP,2013-01-01 22:13:00,
2013-01-01 14:18:00,34.9,17.1,30.30,WNW,302,2.7,5.8,48,0.00,,,0.00,WUHU216WMR968SP,2013-01-01 22:18:00,
2013-01-01 14:23:00,34.7,16.9,30.30,SW,216,3.6,5.8,48,0.00,,,0.00,WUHU216WMR968SP,2013-01-01 22:23:00,
2013-01-01 14:28:00,34.5,17.2,30.30,SW,235,2.2,5.4,49,0.00,,,0.00,WUHU216WMR968SP,2013-01-01 22:28:00,
2013-01-01 14:33:00,34.5,17.7,30.27,SW,217,2.2,4.9,50,0.00,,,0.00,WUHU216WMR968SP,2013-01-01 22:33:00,
2013-01-01 14:38:00,34.3,17.0,30.27,SW,234,3.6,6.3,49,0.00,,,0.00,WUHU216WMR968SP,2013-01-01 22:38:00,
2013-01-01 14:43:00,34.0,16.3,30.27,SW,236,4.5,6.3,48,0.00,,,0.00,WUHU216WMR968SP,2013-01-01 22:43:00,
2013-01-01 14:48:00,34.0,16.3,30.30,WSW,237,2.2,8.1,48,0.00,,,0.00,WUHU216WMR968SP,2013-01-01 22:48:00,
2013-01-01 14:53:00,34.0,15.8,30.30,NW,321,3.6,8.1,47,0.00,,,0.00,WUHU216WMR968SP,2013-01-01 22:53:00,
2013-01-01 14:58:00,33.8,16.1,30.30,West,281,3.6,7.6,48,0.00,,,0.00,WUHU216WMR968SP,2013-01-01 22:58:00,
2013-01-01 15:03:00,33.8,16.1,30.30,NW,320,0.0,6.3,48,0.00,,,0.00,WUHU216WMR968SP,2013-01-01 23:03:00,
2013-01-01 15:08:00,34.3,17.5,30.30,SW,221,0.0,5.8,50,0.00,,,0.00,WUHU216WMR968SP,2013-01-01 23:08:00,
2013-01-01 15:13:00,34.9,18.1,30.30,SW,234,0.0,4.0,50,0.00,,,0.00,WUHU216WMR968SP,2013-01-01 23:13:00,
2013-01-01 15:18:00,35.1,17.8,30.30,WSW,258,0.0,4.0,49,0.00,,,0.00,WUHU216WMR968SP,2013-01-01 23:18:00,
2013-01-01 15:23:00,34.7,15.4,30.30,West,278,2.7,5.8,45,0.00,,,0.00,WUHU216WMR968SP,2013-01-01 23:23:00,
2013-01-01 15:28:00,34.5,15.2,30.30,WSW,241,0.0,5.8,45,0.00,,,0.00,WUHU216WMR968SP,2013-01-01 23:28:00,
2013-01-01 15:33:00,34.5,15.2,30.30,WSW,242,0.0,4.0,45,0.00,,,0.00,WUHU216WMR968SP,2013-01-01 23:33:00,
2013-01-01 15:38:00,34.5,15.7,30.30,WSW,242,0.0,0.0,46,0.00,,,0.00,WUHU216WMR968SP,2013-01-01 23:38:00,
2013-01-01 15:43:00,34.3,15.5,30.30,WSW,242,0.0,0.0,46,0.00,,,0.00,WUHU216WMR968SP,2013-01-01 23:43:00,
2013-01-01 15:48:00,34.3,15.5,30.30,West,259,0.0,0.0,46,0.00,,,0.00,WUHU216WMR968SP,2013-01-01 23:48:00,
2013-01-01 15:53:00,34.3,15.5,30.30,West,259,0.0,0.0,46,0.00,,,0.00,WUHU216WMR968SP,2013-01-01 23:53:00,
2013-01-01 15:58:00,34.3,15.5,30.30,West,259,0.0,0.0,46,0.00,,,0.00,WUHU216WMR968SP,2013-01-01 23:58:00,
2013-01-01 16:03:00,34.2,15.4,30.30,West,259,0.0,0.0,46,0.00,,,0.00,WUHU216WMR968SP,2013-01-02 00:03:00,
2013-01-01 16:08:00,34.0,15.3,30.30,WSW,258,0.0,0.0,46,0.00,,,0.00,WUHU216WMR968SP,2013-01-02 00:08:00,
2013-01-01 16:13:00,33.8,15.1,30.30,WSW,258,0.0,0.0,46,0.00,,,0.00,WUHU216WMR968SP,2013-01-02 00:13:00,
2013-01-01 16:18:00,33.8,15.1,30.30,West,259,0.0,0.0,46,0.00,,,0.00,WUHU216WMR968SP,2013-01-02 00:18:00,
2013-01-01 16:23:00,33.8,15.6,30.30,WSW,258,0.0,0.0,47,0.00,,,0.00,WUHU216WMR968SP,2013-01-02 00:23:00,
2013-01-01 16:28:00,33.6,15.4,30.30,WSW,258,0.0,0.0,47,0.00,,,0.00,WUHU216WMR968SP,2013-01-02 00:28:00,
2013-01-01 16:33:00,33.3,15.1,30.30,West,259,0.0,0.0,47,0.00,,,0.00,WUHU216WMR968SP,2013-01-02 00:33:00,
2013-01-01 16:38:00,32.9,14.8,30.30,WSW,257,0.0,0.0,47,0.00,,,0.00,WUHU216WMR968SP,2013-01-02 00:38:00,
2013-01-01 16:43:00,32.5,14.9,30.30,WSW,258,0.0,0.0,48,0.00,,,0.00,WUHU216WMR968SP,2013-01-02 00:43:00,
2013-01-01 16:48:00,32.2,14.6,30.30,WSW,258,0.0,0.0,48,0.00,,,0.00,WUHU216WMR968SP,2013-01-02 00:48:00,
2013-01-01 16:53:00,32.0,14.9,30.30,WSW,258,0.0,0.0,49,0.00,,,0.00,WUHU216WMR968SP,2013-01-02 00:53:00,
2013-01-01 16:58:00,31.6,14.5,30.30,WSW,258,0.0,0.0,49,0.00,,,0.00,WUHU216WMR968SP,2013-01-02 00:58:00,
2013-01-01 17:03:00,31.6,15.0,30.30,WSW,258,0.0,0.0,50,0.00,,,0.00,WUHU216WMR968SP,2013-01-02 01:03:00,
2013-01-01 17:08:00,31.3,14.7,30.30,WSW,258,0.0,0.0,50,0.00,,,0.00,WUHU216WMR968SP,2013-01-02 01:08:00,
2013-01-01 17:13:00,31.3,14.7,30.30,WSW,258,0.0,0.0,50,0.00,,,0.00,WUHU216WMR968SP,2013-01-02 01:13:00,
2013-01-01 17:18:00,31.1,15.0,30.30,WSW,258,0.0,0.0,51,0.00,,,0.00,WUHU216WMR968SP,2013-01-02 01:18:00,
2013-01-01 17:23:00,31.1,15.5,30.30,WSW,258,0.0,0.0,52,0.00,,,0.00,WUHU216WMR968SP,2013-01-02 01:23:00,
2013-01-01 17:28:00,31.1,15.9,30.30,WSW,258,0.0,0.0,53,0.00,,,0.00,WUHU216WMR968SP,2013-01-02 01:28:00,
2013-01-01 17:33:00,31.1,16.4,30.30,WSW,258,0.0,0.0,54,0.00,,,0.00,WUHU216WMR968SP,2013-01-02 01:33:00,
2013-01-01 17:38:00,30.9,16.6,30.30,WSW,258,0.0,0.0,55,0.00,,,0.00,WUHU216WMR968SP,2013-01-02 01:38:00,
2013-01-01 17:43:00,30.7,16.9,30.30,WSW,258,0.0,0.0,56,0.00,,,0.00,WUHU216WMR968SP,2013-01-02 01:43:00,
2013-01-01 17:48:00,30.6,16.8,30.30,WSW,258,0.0,0.0,56,0.00,,,0.00,WUHU216WMR968SP,2013-01-02 01:48:00,
2013-01-01 17:53:00,30.4,16.6,30.30,WSW,258,0.0,0.0,56,0.00,,,0.00,WUHU216WMR968SP,2013-01-02 01:53:00,
2013-01-01 17:58:00,30.2,16.8,30.30,WSW,258,0.0,0.0,57,0.00,,,0.00,WUHU216WMR968SP,2013-01-02 01:58:00,
2013-01-01 18:03:00,30.2,16.8,30.30,WSW,258,0.0,0.0,57,0.00,,,0.00,WUHU216WMR968SP,2013-01-02 02:03:00,
2013-01-01 18:08:00,29.8,16.4,30.30,WSW,258,0.0,0.0,57,0.00,,,0.00,WUHU216WMR968SP,2013-01-02 02:08:00,
2013-01-01 18:13:00,29.5,16.2,30.30,WSW,258,0.0,0.0,57,0.00,,,0.00,WUHU216WMR968SP,2013-01-02 02:13:00,
2013-01-01 18:18:00,29.3,16.4,30.30,WSW,258,0.0,0.0,58,0.00,,,0.00,WUHU216WMR968SP,2013-01-02 02:18:00,
2013-01-01 18:23:00,29.1,16.2,30.30,WSW,258,0.0,0.0,58,0.00,,,0.00,WUHU216WMR968SP,2013-01-02 02:23:00,
2013-01-01 18:28:00,29.1,16.6,30.30,WSW,258,0.0,0.0,59,0.00,,,0.00,WUHU216WMR968SP,2013-01-02 02:28:00,
2013-01-01 18:33:00,28.9,16.4,30.30,WSW,258,0.0,0.0,59,0.00,,,0.00,WUHU216WMR968SP,2013-01-02 02:33:00,
2013-01-01 18:38:00,28.9,16.8,30.30,WSW,258,0.0,0.0,60,0.00,,,0.00,WUHU216WMR968SP,2013-01-02 02:38:00,
2013-01-01 18:43:00,28.9,16.8,30.30,WSW,258,0.0,0.0,60,0.00,,,0.00,WUHU216WMR968SP,2013-01-02 02:43:00,
2013-01-01 18:48:00,28.8,17.1,30.30,WSW,258,0.0,0.0,61,0.00,,,0.00,WUHU216WMR968SP,2013-01-02 02:48:00,
2013-01-01 18:53:00,28.8,17.1,30.30,WSW,258,0.0,0.0,61,0.00,,,0.00,WUHU216WMR968SP,2013-01-02 02:53:00,
2013-01-01 18:58:00,28.8,17.5,30.30,WSW,258,0.0,0.0,62,0.00,,,0.00,WUHU216WMR968SP,2013-01-02 02:58:00,
2013-01-01 19:03:00,28.8,17.5,30.30,WSW,258,0.0,0.0,62,0.00,,,0.00,WUHU216WMR968SP,2013-01-02 03:03:00,
2013-01-01 19:08:00,28.6,17.7,30.30,WSW,258,0.0,0.0,63,0.00,,,0.00,WUHU216WMR968SP,2013-01-02 03:08:00,
2013-01-01 19:13:00,28.6,17.7,30.30,WSW,258,0.0,0.0,63,0.00,,,0.00,WUHU216WMR968SP,2013-01-02 03:13:00,
2013-01-01 19:18:00,28.6,17.7,30.30,WSW,258,0.0,0.0,63,0.00,,,0.00,WUHU216WMR968SP,2013-01-02 03:18:00,
2013-01-01 19:23:00,28.4,17.8,30.30,WSW,258,0.0,0.0,64,0.00,,,0.00,WUHU216WMR968SP,2013-01-02 03:23:00,
2013-01-01 19:28:00,28.4,17.8,30.30,WSW,258,0.0,0.0,64,0.00,,,0.00,WUHU216WMR968SP,2013-01-02 03:28:00,
2013-01-01 19:33:00,28.4,17.8,30.30,WSW,258,0.0,0.0,64,0.00,,,0.00,WUHU216WMR968SP,2013-01-02 03:33:00,
2013-01-01 19:38:00,28.2,18.0,30.30,WSW,258,0.0,0.0,65,0.00,,,0.00,WUHU216WMR968SP,2013-01-02 03:38:00,
2013-01-01 19:43:00,28.2,18.0,30.30,WSW,258,0.0,0.0,65,0.00,,,0.00,WUHU216WMR968SP,2013-01-02 03:43:00,
2013-01-01 19:48:00,28.2,18.4,30.30,WSW,258,0.0,0.0,66,0.00,,,0.00,WUHU216WMR968SP,2013-01-02 03:48:00,
2013-01-01 19:53:00,28.2,18.7,30.30,WSW,258,0.0,0.0,67,0.00,,,0.00,WUHU216WMR968SP,2013-01-02 03:53:00,
2013-01-01 19:58:00,28.2,18.7,30.30,WSW,258,0.0,0.0,67,0.00,,,0.00,WUHU216WMR968SP,2013-01-02 03:58:00,
2013-01-01 20:03:00,28.4,19.2,30.30,WSW,258,0.0,0.0,68,0.00,,,0.00,WUHU216WMR968SP,2013-01-02 04:03:00,
2013-01-01 20:08:00,28.4,19.2,30.30,WSW,258,0.0,0.0,68,0.00,,,0.00,WUHU216WMR968SP,2013-01-02 04:08:00,
2013-01-01 20:13:00,28.4,19.2,30.30,WSW,258,0.0,0.0,68,0.00,,,0.00,WUHU216WMR968SP,2013-01-02 04:13:00,
2013-01-01 20:18:00,28.4,19.2,30.30,WSW,258,0.0,0.0,68,0.00,,,0.00,WUHU216WMR968SP,2013-01-02 04:18:00,
2013-01-01 20:23:00,28.4,19.6,30.30,WSW,258,0.0,0.0,69,0.00,,,0.00,WUHU216WMR968SP,2013-01-02 04:23:00,
2013-01-01 20:28:00,28.6,19.8,30.30,WSW,258,0.0,0.0,69,0.00,,,0.00,WUHU216WMR968SP,2013-01-02 04:28:00,
2013-01-01 20:33:00,28.8,20.0,30.30,WSW,258,0.0,0.0,69,0.00,,,0.00,WUHU216WMR968SP,2013-01-02 04:33:00,
2013-01-01 20:38:00,28.8,20.0,30.30,WSW,258,0.0,0.0,69,0.00,,,0.00,WUHU216WMR968SP,2013-01-02 04:38:00,
2013-01-01 20:43:00,28.8,20.3,30.30,WSW,258,0.0,0.0,70,0.00,,,0.00,WUHU216WMR968SP,2013-01-02 04:43:00,
2013-01-01 20:48:00,28.8,20.3,30.27,WSW,258,0.0,0.0,70,0.00,,,0.00,WUHU216WMR968SP,2013-01-02 04:48:00,
2013-01-01 20:53:00,28.8,20.3,30.27,WSW,258,0.0,0.0,70,0.00,,,0.00,WUHU216WMR968SP,2013-01-02 04:53:00,
2013-01-01 20:58:00,28.9,20.4,30.27,WSW,258,0.0,0.0,70,0.00,,,0.00,WUHU216WMR968SP,2013-01-02 04:58:00,
2013-01-01 21:00:00,28.9,20.7,30.27,WSW,258,0.0,0.0,71,0.00,,,0.00,WUHU216WMR968SP,2013-01-02 05:00:00,
2013-01-01 21:02:00,29.1,20.9,30.27,WSW,258,0.0,0.0,71,0.00,,,0.00,WUHU216WMR968SP,2013-01-02 05:02:00,
2013-01-01 21:07:00,29.3,21.4,30.27,WSW,238,0.0,2.7,72,0.00,,,0.00,WUHU216WMR968SP,2013-01-02 05:07:00,
2013-01-01 21:12:00,29.5,22.0,30.27,WSW,238,0.0,2.7,73,0.00,,,0.00,WUHU216WMR968SP,2013-01-02 05:12:00,
2013-01-01 21:17:00,29.7,22.2,30.27,WSW,238,0.0,0.0,73,0.00,,,0.00,WUHU216WMR968SP,2013-01-02 05:17:00,
2013-01-01 21:22:00,29.8,22.6,30.27,WSW,238,0.0,0.0,74,0.00,,,0.00,WUHU216WMR968SP,2013-01-02 05:22:00,
2013-01-01 21:27:00,29.8,22.6,30.27,WSW,238,0.0,0.0,74,0.00,,,0.00,WUHU216WMR968SP,2013-01-02 05:27:00,
2013-01-01 21:32:00,29.8,22.6,30.27,WSW,238,0.0,0.0,74,0.00,,,0.00,WUHU216WMR968SP,2013-01-02 05:32:00,
2013-01-01 21:37:00,29.7,22.8,30.27,WSW,238,0.0,0.0,75,0.00,,,0.00,WUHU216WMR968SP,2013-01-02 05:37:00,
2013-01-01 21:42:00,29.5,22.3,30.27,WSW,238,0.0,0.0,74,0.00,,,0.00,WUHU216WMR968SP,2013-01-02 05:42:00,
2013-01-01 21:47:00,29.3,22.1,30.27,WSW,238,0.0,0.0,74,0.00,,,0.00,WUHU216WMR968SP,2013-01-02 05:47:00,
2013-01-01 21:52:00,29.3,22.4,30.27,WSW,238,0.0,0.0,75,0.00,,,0.00,WUHU216WMR968SP,2013-01-02 05:52:00,
2013-01-01 21:57:00,29.3,22.4,30.27,WSW,238,0.0,0.0,75,0.00,,,0.00,WUHU216WMR968SP,2013-01-02 05:57:00,
2013-01-01 22:02:00,29.1,22.2,30.27,WSW,238,0.0,0.0,75,0.00,,,0.00,WUHU216WMR968SP,2013-01-02 06:02:00,
2013-01-01 22:07:00,28.9,22.0,30.27,WSW,238,0.0,0.0,75,0.00,,,0.00,WUHU216WMR968SP,2013-01-02 06:07:00,
2013-01-01 22:12:00,28.9,22.3,30.27,WSW,238,0.0,0.0,76,0.00,,,0.00,WUHU216WMR968SP,2013-01-02 06:12:00,
2013-01-01 22:17:00,28.8,22.2,30.27,WSW,238,0.0,0.0,76,0.00,,,0.00,WUHU216WMR968SP,2013-01-02 06:17:00,
2013-01-01 22:22:00,28.8,22.2,30.27,WSW,238,0.0,0.0,76,0.00,,,0.00,WUHU216WMR968SP,2013-01-02 06:22:00,
2013-01-01 22:27:00,28.8,22.2,30.27,WSW,238,0.0,0.0,76,0.00,,,0.00,WUHU216WMR968SP,2013-01-02 06:27:00,
2013-01-01 22:32:00,28.8,22.2,30.27,WSW,238,0.0,0.0,76,0.00,,,0.00,WUHU216WMR968SP,2013-01-02 06:32:00,
2013-01-01 22:37:00,28.8,22.2,30.27,WSW,238,0.0,0.0,76,0.00,,,0.00,WUHU216WMR968SP,2013-01-02 06:37:00,
2013-01-01 22:42:00,28.9,22.6,30.27,WSW,238,0.0,0.0,77,0.00,,,0.00,WUHU216WMR968SP,2013-01-02 06:42:00,
2013-01-01 22:47:00,28.9,22.6,30.27,WSW,238,0.0,0.0,77,0.00,,,0.00,WUHU216WMR968SP,2013-01-02 06:47:00,
2013-01-01 22:52:00,28.8,22.5,30.27,WSW,238,0.0,0.0,77,0.00,,,0.00,WUHU216WMR968SP,2013-01-02 06:52:00,
2013-01-01 22:57:00,28.8,22.5,30.27,WSW,238,0.0,0.0,77,0.00,,,0.00,WUHU216WMR968SP,2013-01-02 06:57:00,
2013-01-01 23:02:00,28.8,22.5,30.27,WSW,238,0.0,0.0,77,0.00,,,0.00,WUHU216WMR968SP,2013-01-02 07:02:00,
2013-01-01 23:07:00,28.9,22.6,30.27,WSW,238,0.0,0.0,77,0.00,,,0.00,WUHU216WMR968SP,2013-01-02 07:07:00,
2013-01-01 23:12:00,28.9,22.6,30.27,WSW,238,0.0,0.0,77,0.00,,,0.00,WUHU216WMR968SP,2013-01-02 07:12:00,
2013-01-01 23:17:00,28.8,22.5,30.27,WSW,238,0.0,0.0,77,0.00,,,0.00,WUHU216WMR968SP,2013-01-02 07:17:00,
2013-01-01 23:22:00,28.8,22.5,30.27,WSW,238,0.0,0.0,77,0.00,,,0.00,WUHU216WMR968SP,2013-01-02 07:22:00,
2013-01-01 23:27:00,28.8,22.5,30.27,WSW,238,0.0,0.0,77,0.00,,,0.00,WUHU216WMR968SP,2013-01-02 07:27:00,
2013-01-01 23:32:00,28.8,22.5,30.27,WSW,238,0.0,0.0,77,0.00,,,0.00,WUHU216WMR968SP,2013-01-02 07:32:00,
2013-01-01 23:37:00,28.8,22.5,30.27,WSW,238,0.0,0.0,77,0.00,,,0.00,WUHU216WMR968SP,2013-01-02 07:37:00,
2013-01-01 23:42:00,28.8,22.5,30.27,WSW,238,0.0,0.0,77,0.00,,,0.00,WUHU216WMR968SP,2013-01-02 07:42:00,
2013-01-01 23:47:00,28.6,22.3,30.27,WSW,238,0.0,0.0,77,0.00,,,0.00,WUHU216WMR968SP,2013-01-02 07:47:00,
2013-01-01 23:52:00,28.6,22.3,30.27,WSW,238,0.0,0.0,77,0.00,,,0.00,WUHU216WMR968SP,2013-01-02 07:52:00,
2013-01-01 23:57:00,28.6,22.3,30.27,WSW,238,0.0,0.0,77,0.00,,,0.00,WUHU216WMR968SP,2013-01-02 07:57:00,